sensor_id;sensor_type;location;lat;lon;timestamp;pressure;altitude;pressure_sealevel;temperature;humidity
11499;BME280;5806;48.748;9.278;2023-07-20T09:42:21;100886.92;;;20.21;58.46
11499;BME280;5806;48.748;9.278;2023-07-20T09:44:51;100878.78;;;20.06;56.91
11499;BME280;5806;48.748;9.278;2023-07-20T09:47:22;100885.39;;;19.91;56.56
11499;BME280;5806;48.748;9.278;2023-07-20T09:49:54;100882.53;;;19.96;56.85
11499;BME280;5806;48.748;9.278;2023-07-20T09:52:19;100889.67;;;20.02;56.23
11499;BME280;5806;48.748;9.278;2023-07-20T09:54:47;100888.34;;;20.18;55.97
11499;BME280;5806;48.748;9.278;2023-07-20T09:57:14;100880.23;;;20.22;55.39
11499;BME280;5806;48.748;9.278;2023-07-20T09:59:42;100881.78;;;20.28;55.19
11499;BME280;5806;48.748;9.278;2023-07-20T10:02:21;100881.08;;;20.38;53.51
11499;BME280;5806;48.748;9.278;2023-07-20T10:04:52;100881.14;;;20.65;52.86
11499;BME280;5806;48.748;9.278;2023-07-20T10:07:22;100870.56;;;20.35;50.71
11499;BME280;5806;48.748;9.278;2023-07-20T10:09:52;100866.20;;;20.45;52.23
11499;BME280;5806;48.748;9.278;2023-07-20T10:12:22;100865.10;;;20.76;51.55
11499;BME280;5806;48.748;9.278;2023-07-20T10:15:01;100865.04;;;20.97;52.48
11499;BME280;5806;48.748;9.278;2023-07-20T10:17:27;100863.50;;;21.31;51.37
11499;BME280;5806;48.748;9.278;2023-07-20T10:19:56;100864.41;;;21.13;50.79
11499;BME280;5806;48.748;9.278;2023-07-20T10:22:26;100859.25;;;20.93;50.90
11499;BME280;5806;48.748;9.278;2023-07-20T10:24:54;100874.41;;;20.85;52.40
11499;BME280;5806;48.748;9.278;2023-07-20T10:27:23;100863.80;;;21.03;51.73
11499;BME280;5806;48.748;9.278;2023-07-20T10:29:52;100866.07;;;21.01;52.46
11499;BME280;5806;48.748;9.278;2023-07-20T10:32:22;100859.92;;;21.01;52.16
11499;BME280;5806;48.748;9.278;2023-07-20T10:34:53;100859.42;;;20.99;51.89
11499;BME280;5806;48.748;9.278;2023-07-20T10:37:49;100857.86;;;20.93;50.70
11499;BME280;5806;48.748;9.278;2023-07-20T10:40:28;100856.84;;;20.87;50.88
11499;BME280;5806;48.748;9.278;2023-07-20T10:42:59;100852.47;;;20.99;50.26
11499;BME280;5806;48.748;9.278;2023-07-20T10:48:17;100852.51;;;21.24;50.46
11499;BME280;5806;48.748;9.278;2023-07-20T10:51:08;100851.22;;;21.05;50.49
11499;BME280;5806;48.748;9.278;2023-07-20T10:53:17;100846.98;;;20.94;50.47
11499;BME280;5806;48.748;9.278;2023-07-20T10:55:45;100839.23;;;20.94;50.91
11499;BME280;5806;48.748;9.278;2023-07-20T10:58:15;100837.08;;;20.88;49.92
11499;BME280;5806;48.748;9.278;2023-07-20T11:00:57;100839.91;;;21.15;49.03
11499;BME280;5806;48.748;9.278;2023-07-20T11:03:30;100834.18;;;21.23;49.07
11499;BME280;5806;48.748;9.278;2023-07-20T11:05:59;100840.72;;;21.16;49.67
11499;BME280;5806;48.748;9.278;2023-07-20T11:08:41;100836.54;;;21.29;50.08
11499;BME280;5806;48.748;9.278;2023-07-20T11:11:29;100834.09;;;21.52;50.05
11499;BME280;5806;48.748;9.278;2023-07-20T11:13:58;100828.28;;;21.51;48.95
11499;BME280;5806;48.748;9.278;2023-07-20T11:19:23;100834.23;;;21.20;50.97
11499;BME280;5806;48.748;9.278;2023-07-20T11:21:52;100835.88;;;21.08;50.11
11499;BME280;5806;48.748;9.278;2023-07-20T11:24:20;100833.03;;;21.10;49.74
11499;BME280;5806;48.748;9.278;2023-07-20T11:26:49;100824.86;;;21.16;49.79
11499;BME280;5806;48.748;9.278;2023-07-20T11:29:19;100825.62;;;20.92;48.93
11499;BME280;5806;48.748;9.278;2023-07-20T11:31:47;100829.50;;;21.07;49.16
11499;BME280;5806;48.748;9.278;2023-07-20T11:34:17;100829.39;;;21.12;46.94
11499;BME280;5806;48.748;9.278;2023-07-20T11:36:46;100823.22;;;21.15;48.04
11499;BME280;5806;48.748;9.278;2023-07-20T11:39:18;100823.05;;;21.09;48.10
11499;BME280;5806;48.748;9.278;2023-07-20T11:41:50;100821.97;;;21.08;48.70
11499;BME280;5806;48.748;9.278;2023-07-20T11:44:19;100826.00;;;21.15;48.91
11499;BME280;5806;48.748;9.278;2023-07-20T11:46:49;100828.20;;;21.16;47.07
11499;BME280;5806;48.748;9.278;2023-07-20T11:49:17;100829.84;;;21.17;47.30
11499;BME280;5806;48.748;9.278;2023-07-20T11:51:44;100827.83;;;21.33;47.29
11499;BME280;5806;48.748;9.278;2023-07-20T11:54:12;100823.87;;;21.61;47.08
11499;BME280;5806;48.748;9.278;2023-07-20T11:56:41;100823.44;;;21.68;45.57
11499;BME280;5806;48.748;9.278;2023-07-20T11:59:09;100820.31;;;21.72;44.94
11499;BME280;5806;48.748;9.278;2023-07-20T12:01:36;100821.09;;;21.75;45.24
11499;BME280;5806;48.748;9.278;2023-07-20T12:04:04;100816.53;;;21.65;45.63
11499;BME280;5806;48.748;9.278;2023-07-20T12:06:33;100812.89;;;21.67;45.50
11499;BME280;5806;48.748;9.278;2023-07-20T12:09:01;100816.53;;;21.65;46.83
11499;BME280;5806;48.748;9.278;2023-07-20T12:11:35;100808.86;;;21.73;45.66
11499;BME280;5806;48.748;9.278;2023-07-20T12:14:07;100805.22;;;21.62;44.45
11499;BME280;5806;48.748;9.278;2023-07-20T12:16:36;100809.83;;;21.55;45.18
11499;BME280;5806;48.748;9.278;2023-07-20T12:19:09;100806.67;;;21.59;45.29
11499;BME280;5806;48.748;9.278;2023-07-20T12:21:40;100809.42;;;21.48;45.16
11499;BME280;5806;48.748;9.278;2023-07-20T12:24:10;100819.29;;;21.30;45.93
11499;BME280;5806;48.748;9.278;2023-07-20T12:26:38;100813.25;;;21.25;46.88
11499;BME280;5806;48.748;9.278;2023-07-20T12:29:05;100812.78;;;21.21;47.47
11499;BME280;5806;48.748;9.278;2023-07-20T12:31:36;100815.31;;;21.20;47.79
11499;BME280;5806;48.748;9.278;2023-07-20T12:34:03;100802.08;;;21.14;47.77
11499;BME280;5806;48.748;9.278;2023-07-20T12:36:30;100818.88;;;21.09;47.33
11499;BME280;5806;48.748;9.278;2023-07-20T12:38:58;100809.14;;;21.09;47.18
11499;BME280;5806;48.748;9.278;2023-07-20T12:41:27;100811.37;;;21.10;47.58
11499;BME280;5806;48.748;9.278;2023-07-20T12:43:55;100808.70;;;21.05;48.71
11499;BME280;5806;48.748;9.278;2023-07-20T12:46:24;100809.45;;;21.08;47.73
11499;BME280;5806;48.748;9.278;2023-07-20T12:48:51;100812.95;;;21.00;48.30
11499;BME280;5806;48.748;9.278;2023-07-20T12:51:20;100809.31;;;21.02;46.60
11499;BME280;5806;48.748;9.278;2023-07-20T12:53:47;100811.86;;;20.98;47.57
11499;BME280;5806;48.748;9.278;2023-07-20T12:56:15;100809.36;;;20.99;47.82
11499;BME280;5806;48.748;9.278;2023-07-20T12:58:43;100808.22;;;21.00;47.58
11499;BME280;5806;48.748;9.278;2023-07-20T13:01:10;100809.44;;;20.94;47.76
11499;BME280;5806;48.748;9.278;2023-07-20T13:03:37;100803.66;;;20.91;47.56
11499;BME280;5806;48.748;9.278;2023-07-20T13:06:05;100804.55;;;20.89;47.27
11499;BME280;5806;48.748;9.278;2023-07-20T13:08:32;100808.03;;;20.97;47.27
11499;BME280;5806;48.748;9.278;2023-07-20T13:11:00;100808.70;;;21.05;48.02
11499;BME280;5806;48.748;9.278;2023-07-20T13:13:27;100809.36;;;21.13;47.54
11499;BME280;5806;48.748;9.278;2023-07-20T13:15:55;100806.11;;;21.22;47.20
11499;BME280;5806;48.748;9.278;2023-07-20T13:18:23;100801.20;;;21.30;48.78
11499;BME280;5806;48.748;9.278;2023-07-20T13:20:50;100798.14;;;21.29;47.53
11499;BME280;5806;48.748;9.278;2023-07-20T13:23:17;100796.97;;;21.32;47.13
11499;BME280;5806;48.748;9.278;2023-07-20T13:25:45;100794.32;;;21.38;46.47
11499;BME280;5806;48.748;9.278;2023-07-20T13:28:12;100800.41;;;21.40;47.42
11499;BME280;5806;48.748;9.278;2023-07-20T13:30:40;100800.72;;;21.39;47.24
11499;BME280;5806;48.748;9.278;2023-07-20T13:33:07;100791.55;;;21.25;45.34
11499;BME280;5806;48.748;9.278;2023-07-20T13:35:35;100791.04;;;21.36;48.15
11499;BME280;5806;48.748;9.278;2023-07-20T13:38:02;100786.06;;;21.47;48.59
11499;BME280;5806;48.748;9.278;2023-07-20T13:40:30;100785.45;;;21.50;46.82
11499;BME280;5806;48.748;9.278;2023-07-20T13:42:57;100790.03;;;21.68;46.81
11499;BME280;5806;48.748;9.278;2023-07-20T13:45:24;100782.48;;;21.71;44.85
11499;BME280;5806;48.748;9.278;2023-07-20T13:47:52;100776.67;;;21.56;44.94
11499;BME280;5806;48.748;9.278;2023-07-20T13:50:19;100777.16;;;21.58;43.83
11499;BME280;5806;48.748;9.278;2023-07-20T13:52:47;100774.78;;;21.65;44.47
11499;BME280;5806;48.748;9.278;2023-07-20T13:55:15;100778.49;;;21.61;43.79
11499;BME280;5806;48.748;9.278;2023-07-20T13:57:42;100772.73;;;21.57;45.13
11499;BME280;5806;48.748;9.278;2023-07-20T14:00:12;100774.20;;;21.55;43.11
11499;BME280;5806;48.748;9.278;2023-07-20T14:02:40;100773.67;;;21.53;43.18
11499;BME280;5806;48.748;9.278;2023-07-20T14:05:07;100770.52;;;21.57;44.34
11499;BME280;5806;48.748;9.278;2023-07-20T14:07:35;100761.79;;;21.61;44.93
11499;BME280;5806;48.748;9.278;2023-07-20T14:10:03;100762.16;;;21.57;45.36
11499;BME280;5806;48.748;9.278;2023-07-20T14:12:31;100753.01;;;21.56;42.98
11499;BME280;5806;48.748;9.278;2023-07-20T14:14:58;100745.98;;;21.59;43.73
11499;BME280;5806;48.748;9.278;2023-07-20T14:17:26;100752.03;;;21.74;44.54
11499;BME280;5806;48.748;9.278;2023-07-20T14:19:53;100751.55;;;22.05;44.07
11499;BME280;5806;48.748;9.278;2023-07-20T14:22:21;100744.58;;;22.16;42.92
11499;BME280;5806;48.748;9.278;2023-07-20T14:24:49;100743.67;;;22.07;42.61
11499;BME280;5806;48.748;9.278;2023-07-20T14:27:16;100742.59;;;22.17;43.78
11499;BME280;5806;48.748;9.278;2023-07-20T14:29:44;100741.48;;;22.18;41.92
11499;BME280;5806;48.748;9.278;2023-07-20T14:32:11;100739.40;;;22.43;43.49
11499;BME280;5806;48.748;9.278;2023-07-20T14:34:38;100744.06;;;22.45;43.41
11499;BME280;5806;48.748;9.278;2023-07-20T14:37:07;100735.20;;;22.54;42.04
11499;BME280;5806;48.748;9.278;2023-07-20T14:39:34;100736.54;;;22.45;42.15
11499;BME280;5806;48.748;9.278;2023-07-20T14:42:02;100737.61;;;22.16;42.06
11499;BME280;5806;48.748;9.278;2023-07-20T14:44:33;100738.63;;;21.98;42.16
11499;BME280;5806;48.748;9.278;2023-07-20T14:47:01;100735.97;;;21.82;42.61
11499;BME280;5806;48.748;9.278;2023-07-20T14:49:28;100728.06;;;21.87;43.00
11499;BME280;5806;48.748;9.278;2023-07-20T14:51:56;100730.12;;;22.14;42.94
11499;BME280;5806;48.748;9.278;2023-07-20T14:54:23;100729.66;;;22.32;42.42
11499;BME280;5806;48.748;9.278;2023-07-20T14:56:52;100728.78;;;22.34;42.13
11499;BME280;5806;48.748;9.278;2023-07-20T14:59:20;100726.55;;;22.33;42.02
11499;BME280;5806;48.748;9.278;2023-07-20T15:01:47;100725.70;;;22.44;42.88
11499;BME280;5806;48.748;9.278;2023-07-20T15:04:15;100719.70;;;22.50;42.58
11499;BME280;5806;48.748;9.278;2023-07-20T15:06:42;100714.29;;;22.54;42.14
11499;BME280;5806;48.748;9.278;2023-07-20T15:09:10;100711.98;;;22.36;43.94
11499;BME280;5806;48.748;9.278;2023-07-20T15:11:37;100710.08;;;22.34;41.86
11499;BME280;5806;48.748;9.278;2023-07-20T15:14:05;100714.16;;;22.28;42.25
11499;BME280;5806;48.748;9.278;2023-07-20T15:16:32;100710.54;;;22.28;43.10
11499;BME280;5806;48.748;9.278;2023-07-20T15:19:01;100702.58;;;22.54;41.62
11499;BME280;5806;48.748;9.278;2023-07-20T15:21:28;100705.00;;;22.47;41.89
11499;BME280;5806;48.748;9.278;2023-07-20T15:23:58;100702.73;;;22.27;43.14
11499;BME280;5806;48.748;9.278;2023-07-20T15:26:25;100706.28;;;22.30;43.44
11499;BME280;5806;48.748;9.278;2023-07-20T15:28:53;100697.95;;;22.50;42.18
11499;BME280;5806;48.748;9.278;2023-07-20T15:31:20;100697.52;;;22.45;42.71
11499;BME280;5806;48.748;9.278;2023-07-20T15:33:48;100689.32;;;22.60;42.99
11499;BME280;5806;48.748;9.278;2023-07-20T15:36:15;100692.19;;;22.57;42.44
11499;BME280;5806;48.748;9.278;2023-07-20T15:38:42;100687.38;;;22.69;41.33
11499;BME280;5806;48.748;9.278;2023-07-20T15:41:10;100693.36;;;22.34;42.31
11499;BME280;5806;48.748;9.278;2023-07-20T15:43:38;100694.69;;;22.48;42.72
11499;BME280;5806;48.748;9.278;2023-07-20T15:46:43;100685.85;;;22.54;43.52
11499;BME280;5806;48.748;9.278;2023-07-20T15:48:36;100678.79;;;22.48;43.91
11499;BME280;5806;48.748;9.278;2023-07-20T15:51:03;100677.87;;;22.50;43.87
11499;BME280;5806;48.748;9.278;2023-07-20T15:53:31;100678.05;;;22.54;43.20
11499;BME280;5806;48.748;9.278;2023-07-20T15:55:58;100672.42;;;22.45;44.08
11499;BME280;5806;48.748;9.278;2023-07-20T15:58:26;100670.19;;;22.36;43.42
11499;BME280;5806;48.748;9.278;2023-07-20T16:00:54;100665.25;;;22.33;43.94
11499;BME280;5806;48.748;9.278;2023-07-20T16:03:22;100667.86;;;22.30;44.21
11499;BME280;5806;48.748;9.278;2023-07-20T16:05:53;100657.88;;;22.48;44.34
11499;BME280;5806;48.748;9.278;2023-07-20T16:08:21;100661.16;;;22.39;44.86
11499;BME280;5806;48.748;9.278;2023-07-20T16:10:48;100655.97;;;22.35;45.70
11499;BME280;5806;48.748;9.278;2023-07-20T16:13:15;100649.59;;;22.35;45.50
11499;BME280;5806;48.748;9.278;2023-07-20T16:15:43;100658.91;;;22.30;44.77
11499;BME280;5806;48.748;9.278;2023-07-20T16:18:10;100653.32;;;22.22;44.50
11499;BME280;5806;48.748;9.278;2023-07-20T16:20:38;100652.66;;;22.25;44.26
11499;BME280;5806;48.748;9.278;2023-07-20T16:23:06;100655.64;;;22.28;43.65
11499;BME280;5806;48.748;9.278;2023-07-20T16:25:33;100654.97;;;22.31;43.61
11499;BME280;5806;48.748;9.278;2023-07-20T16:28:01;100653.78;;;22.35;44.67
11499;BME280;5806;48.748;9.278;2023-07-20T16:30:28;100648.59;;;22.31;44.07
11499;BME280;5806;48.748;9.278;2023-07-20T16:32:57;100650.33;;;22.18;44.78
11499;BME280;5806;48.748;9.278;2023-07-20T16:35:24;100649.19;;;22.19;45.91
11499;BME280;5806;48.748;9.278;2023-07-20T16:37:51;100638.55;;;22.21;45.47
11499;BME280;5806;48.748;9.278;2023-07-20T16:40:19;100646.16;;;22.18;44.27
11499;BME280;5806;48.748;9.278;2023-07-20T16:42:46;100644.15;;;22.10;45.13
11499;BME280;5806;48.748;9.278;2023-07-20T16:45:14;100646.78;;;22.15;45.42
11499;BME280;5806;48.748;9.278;2023-07-20T16:47:41;100637.63;;;22.15;44.98
11499;BME280;5806;48.748;9.278;2023-07-20T16:50:09;100646.94;;;22.10;44.05
11499;BME280;5806;48.748;9.278;2023-07-20T16:52:36;100642.00;;;22.07;45.94
11499;BME280;5806;48.748;9.278;2023-07-20T16:55:04;100640.21;;;22.11;45.29
11499;BME280;5806;48.748;9.278;2023-07-20T16:57:32;100642.75;;;22.10;45.11
11499;BME280;5806;48.748;9.278;2023-07-20T16:59:59;100646.06;;;22.12;45.71
11499;BME280;5806;48.748;9.278;2023-07-20T17:02:27;100638.43;;;22.15;47.08
11499;BME280;5806;48.748;9.278;2023-07-20T17:04:54;100639.80;;;22.07;42.85
11499;BME280;5806;48.748;9.278;2023-07-20T17:07:22;100634.20;;;22.18;42.64
11499;BME280;5806;48.748;9.278;2023-07-20T17:09:49;100632.77;;;22.09;44.53
11499;BME280;5806;48.748;9.278;2023-07-20T17:12:17;100634.09;;;22.01;43.29
11499;BME280;5806;48.748;9.278;2023-07-20T17:14:44;100622.47;;;21.99;45.17
11499;BME280;5806;48.748;9.278;2023-07-20T17:17:12;100632.64;;;22.03;45.14
11499;BME280;5806;48.748;9.278;2023-07-20T17:19:39;100626.89;;;22.00;45.12
11499;BME280;5806;48.748;9.278;2023-07-20T17:22:07;100631.44;;;22.07;43.90
11499;BME280;5806;48.748;9.278;2023-07-20T17:24:34;100629.29;;;22.04;42.88
11499;BME280;5806;48.748;9.278;2023-07-20T17:27:02;100624.66;;;21.99;44.00
11499;BME280;5806;48.748;9.278;2023-07-20T17:29:29;100633.17;;;21.94;44.39
11499;BME280;5806;48.748;9.278;2023-07-20T17:31:56;100633.45;;;21.84;43.84
11499;BME280;5806;48.748;9.278;2023-07-20T17:34:24;100628.76;;;21.82;45.23
11499;BME280;5806;48.748;9.278;2023-07-20T17:36:51;100626.61;;;21.68;45.52
11499;BME280;5806;48.748;9.278;2023-07-20T17:39:19;100627.41;;;21.69;45.79
11499;BME280;5806;48.748;9.278;2023-07-20T17:41:46;100623.69;;;21.62;44.82
11499;BME280;5806;48.748;9.278;2023-07-20T17:44:15;100625.91;;;21.63;44.54
11499;BME280;5806;48.748;9.278;2023-07-20T17:46:43;100622.98;;;21.57;45.53
11499;BME280;5806;48.748;9.278;2023-07-20T17:49:11;100620.59;;;21.53;45.74
11499;BME280;5806;48.748;9.278;2023-07-20T17:51:39;100615.23;;;21.56;45.00
11499;BME280;5806;48.748;9.278;2023-07-20T17:54:06;100613.00;;;21.56;47.34
11499;BME280;5806;48.748;9.278;2023-07-20T17:56:34;100609.84;;;21.60;46.86
11499;BME280;5806;48.748;9.278;2023-07-20T17:59:01;100614.16;;;21.55;46.46
11499;BME280;5806;48.748;9.278;2023-07-20T18:01:29;100616.69;;;21.54;46.71
11499;BME280;5806;48.748;9.278;2023-07-20T18:03:56;100610.28;;;21.42;48.05
11499;BME280;5806;48.748;9.278;2023-07-20T18:06:23;100612.95;;;21.36;48.47
11499;BME280;5806;48.748;9.278;2023-07-20T18:08:51;100616.80;;;21.27;48.66
11499;BME280;5806;48.748;9.278;2023-07-20T18:11:18;100613.41;;;21.30;48.85
11499;BME280;5806;48.748;9.278;2023-07-20T18:13:46;100605.35;;;21.17;48.58
11499;BME280;5806;48.748;9.278;2023-07-20T18:16:13;100604.73;;;21.20;48.45
11499;BME280;5806;48.748;9.278;2023-07-20T18:18:42;100604.53;;;21.06;49.46
11499;BME280;5806;48.748;9.278;2023-07-20T18:21:09;100605.77;;;21.00;49.40
11499;BME280;5806;48.748;9.278;2023-07-20T18:23:36;100603.36;;;20.96;49.79
11499;BME280;5806;48.748;9.278;2023-07-20T18:26:04;100603.27;;;20.87;50.41
11499;BME280;5806;48.748;9.278;2023-07-20T18:28:31;100611.52;;;20.79;49.76
11499;BME280;5806;48.748;9.278;2023-07-20T18:31:04;100607.47;;;20.74;50.24
11499;BME280;5806;48.748;9.278;2023-07-20T18:33:31;100605.83;;;20.73;51.54
11499;BME280;5806;48.748;9.278;2023-07-20T18:35:59;100600.66;;;20.66;51.92
11499;BME280;5806;48.748;9.278;2023-07-20T18:38:27;100602.89;;;20.67;51.57
11499;BME280;5806;48.748;9.278;2023-07-20T18:40:54;100600.53;;;20.60;51.09
11499;BME280;5806;48.748;9.278;2023-07-20T18:43:22;100605.50;;;20.50;52.43
11499;BME280;5806;48.748;9.278;2023-07-20T18:45:54;100597.05;;;20.41;52.12
11499;BME280;5806;48.748;9.278;2023-07-20T18:48:21;100604.67;;;20.36;52.32
11499;BME280;5806;48.748;9.278;2023-07-20T18:50:49;100606.70;;;20.33;51.98
11499;BME280;5806;48.748;9.278;2023-07-20T18:53:16;100608.34;;;20.34;52.29
11499;BME280;5806;48.748;9.278;2023-07-20T18:55:44;100605.45;;;20.25;51.88
11499;BME280;5806;48.748;9.278;2023-07-20T18:58:11;100596.75;;;20.16;51.83
11499;BME280;5806;48.748;9.278;2023-07-20T19:00:39;100602.89;;;20.15;52.71
11499;BME280;5806;48.748;9.278;2023-07-20T19:03:06;100594.86;;;20.14;52.55
11499;BME280;5806;48.748;9.278;2023-07-20T19:05:34;100591.89;;;20.10;53.12
11499;BME280;5806;48.748;9.278;2023-07-20T19:08:06;100597.45;;;20.10;53.21
11499;BME280;5806;48.748;9.278;2023-07-20T19:10:33;100589.39;;;20.09;53.16
11499;BME280;5806;48.748;9.278;2023-07-20T19:13:00;100592.34;;;19.99;53.18
11499;BME280;5806;48.748;9.278;2023-07-20T19:15:28;100594.92;;;19.95;52.97
11499;BME280;5806;48.748;9.278;2023-07-20T19:17:55;100591.92;;;19.92;53.08
11499;BME280;5806;48.748;9.278;2023-07-20T19:20:23;100598.36;;;19.90;53.51
11499;BME280;5806;48.748;9.278;2023-07-20T19:22:50;100594.66;;;19.81;53.50
11499;BME280;5806;48.748;9.278;2023-07-20T19:25:18;100600.25;;;19.78;54.31
11499;BME280;5806;48.748;9.278;2023-07-20T19:27:45;100599.27;;;19.72;54.29
11499;BME280;5806;48.748;9.278;2023-07-20T19:30:13;100600.42;;;19.68;54.46
11499;BME280;5806;48.748;9.278;2023-07-20T19:32:41;100605.53;;;19.61;53.20
11499;BME280;5806;48.748;9.278;2023-07-20T19:35:09;100605.53;;;19.61;53.20
11499;BME280;5806;48.748;9.278;2023-07-20T19:37:38;100603.74;;;19.54;54.33
11499;BME280;5806;48.748;9.278;2023-07-20T19:40:06;100611.09;;;19.45;54.14
11499;BME280;5806;48.748;9.278;2023-07-20T19:42:35;100611.78;;;19.53;53.46
11499;BME280;5806;48.748;9.278;2023-07-20T19:45:02;100609.11;;;19.48;53.37
11499;BME280;5806;48.748;9.278;2023-07-20T19:47:30;100608.06;;;19.44;53.43
11499;BME280;5806;48.748;9.278;2023-07-20T19:49:57;100611.77;;;19.40;54.02
11499;BME280;5806;48.748;9.278;2023-07-20T19:52:25;100611.78;;;19.37;54.74
11499;BME280;5806;48.748;9.278;2023-07-20T19:54:52;100610.88;;;19.26;55.71
11499;BME280;5806;48.748;9.278;2023-07-20T19:57:19;100611.61;;;19.12;56.28
11499;BME280;5806;48.748;9.278;2023-07-20T19:59:47;100609.32;;;18.98;56.89
11499;BME280;5806;48.748;9.278;2023-07-20T20:02:14;100612.08;;;19.01;57.41
11499;BME280;5806;48.748;9.278;2023-07-20T20:04:42;100614.77;;;19.06;57.06
11499;BME280;5806;48.748;9.278;2023-07-20T20:07:10;100613.38;;;19.06;57.55
11499;BME280;5806;48.748;9.278;2023-07-20T20:09:39;100619.09;;;19.12;56.58
11499;BME280;5806;48.748;9.278;2023-07-20T20:12:08;100615.91;;;19.02;56.86
11499;BME280;5806;48.748;9.278;2023-07-20T20:14:35;100618.69;;;19.02;57.11
11499;BME280;5806;48.748;9.278;2023-07-20T20:17:03;100618.69;;;19.02;57.11
11499;BME280;5806;48.748;9.278;2023-07-20T20:19:31;100611.55;;;18.99;57.04
11499;BME280;5806;48.748;9.278;2023-07-20T20:21:59;100603.31;;;18.94;57.45
11499;BME280;5806;48.748;9.278;2023-07-20T20:24:28;100603.31;;;18.94;57.45
11499;BME280;5806;48.748;9.278;2023-07-20T20:26:56;100604.02;;;18.83;58.07
11499;BME280;5806;48.748;9.278;2023-07-20T20:29:23;100601.05;;;18.77;59.13
11499;BME280;5806;48.748;9.278;2023-07-20T20:31:51;100608.52;;;18.79;59.43
11499;BME280;5806;48.748;9.278;2023-07-20T20:34:19;100607.30;;;18.67;59.47
11499;BME280;5806;48.748;9.278;2023-07-20T20:36:46;100607.38;;;18.62;59.51
11499;BME280;5806;48.748;9.278;2023-07-20T20:39:14;100605.46;;;18.78;59.46
11499;BME280;5806;48.748;9.278;2023-07-20T20:41:42;100607.18;;;18.74;59.50
11499;BME280;5806;48.748;9.278;2023-07-20T20:44:14;100608.47;;;18.63;59.79
11499;BME280;5806;48.748;9.278;2023-07-20T20:46:46;100596.77;;;18.66;59.92
11499;BME280;5806;48.748;9.278;2023-07-20T20:49:14;100600.80;;;18.76;59.75
11499;BME280;5806;48.748;9.278;2023-07-20T20:51:41;100591.98;;;18.72;60.13
11499;BME280;5806;48.748;9.278;2023-07-20T20:54:10;100591.98;;;18.72;60.13
11499;BME280;5806;48.748;9.278;2023-07-20T20:56:37;100600.54;;;18.75;60.27
11499;BME280;5806;48.748;9.278;2023-07-20T20:59:05;100600.58;;;18.73;60.36
11499;BME280;5806;48.748;9.278;2023-07-20T21:01:33;100606.34;;;18.76;60.39
11499;BME280;5806;48.748;9.278;2023-07-20T21:04:00;100609.27;;;18.85;59.44
11499;BME280;5806;48.748;9.278;2023-07-20T21:06:28;100605.03;;;18.71;60.18
11499;BME280;5806;48.748;9.278;2023-07-20T21:08:55;100605.03;;;18.71;60.18
11499;BME280;5806;48.748;9.278;2023-07-20T21:11:23;100622.08;;;18.81;60.39
11499;BME280;5806;48.748;9.278;2023-07-20T21:13:50;100630.11;;;18.80;60.77
11499;BME280;5806;48.748;9.278;2023-07-20T21:16:18;100645.59;;;18.83;60.52
11499;BME280;5806;48.748;9.278;2023-07-20T21:18:45;100679.34;;;19.06;59.38
11499;BME280;5806;48.748;9.278;2023-07-20T21:21:14;100680.51;;;19.21;57.19
11499;BME280;5806;48.748;9.278;2023-07-20T21:23:41;100701.17;;;19.13;59.14
11499;BME280;5806;48.748;9.278;2023-07-20T21:26:09;100702.43;;;19.02;61.95
11499;BME280;5806;48.748;9.278;2023-07-20T21:28:36;100691.41;;;18.76;65.11
11499;BME280;5806;48.748;9.278;2023-07-20T21:31:05;100702.52;;;18.52;67.24
11499;BME280;5806;48.748;9.278;2023-07-20T21:33:33;100683.63;;;18.57;66.78
11499;BME280;5806;48.748;9.278;2023-07-20T21:36:01;100711.18;;;18.46;68.49
11499;BME280;5806;48.748;9.278;2023-07-20T21:38:28;100715.63;;;18.44;69.44
11499;BME280;5806;48.748;9.278;2023-07-20T21:40:56;100720.84;;;18.48;69.50
11499;BME280;5806;48.748;9.278;2023-07-20T21:43:24;100719.52;;;18.43;70.58
11499;BME280;5806;48.748;9.278;2023-07-20T21:45:51;100715.30;;;18.22;72.71
11499;BME280;5806;48.748;9.278;2023-07-20T21:48:19;100713.02;;;18.01;74.73
11499;BME280;5806;48.748;9.278;2023-07-20T21:50:48;100714.16;;;17.95;75.96
11499;BME280;5806;48.748;9.278;2023-07-20T21:53:16;100709.52;;;17.90;76.72
11499;BME280;5806;48.748;9.278;2023-07-20T21:55:44;100708.70;;;17.87;77.36
11499;BME280;5806;48.748;9.278;2023-07-20T21:58:13;100698.03;;;17.76;77.51
11499;BME280;5806;48.748;9.278;2023-07-20T22:00:41;100699.45;;;17.68;78.36
11499;BME280;5806;48.748;9.278;2023-07-20T22:03:09;100693.95;;;17.66;79.11
11499;BME280;5806;48.748;9.278;2023-07-20T22:05:41;100690.97;;;17.57;79.13
11499;BME280;5806;48.748;9.278;2023-07-20T22:08:12;100691.47;;;17.64;79.32
11499;BME280;5806;48.748;9.278;2023-07-20T22:10:41;100687.90;;;17.64;79.64
11499;BME280;5806;48.748;9.278;2023-07-20T22:13:08;100685.77;;;17.51;79.72
11499;BME280;5806;48.748;9.278;2023-07-20T22:15:36;100694.09;;;17.48;80.42
11499;BME280;5806;48.748;9.278;2023-07-20T22:18:03;100692.97;;;17.52;80.20
11499;BME280;5806;48.748;9.278;2023-07-20T22:20:32;100690.42;;;17.58;79.74
11499;BME280;5806;48.748;9.278;2023-07-20T22:23:00;100678.86;;;17.51;80.38
11499;BME280;5806;48.748;9.278;2023-07-20T22:25:28;100673.96;;;17.40;80.67
11499;BME280;5806;48.748;9.278;2023-07-20T22:27:55;100659.61;;;17.36;81.06
11499;BME280;5806;48.748;9.278;2023-07-20T22:30:23;100652.41;;;17.35;79.99
11499;BME280;5806;48.748;9.278;2023-07-20T22:32:51;100659.21;;;17.52;79.82
11499;BME280;5806;48.748;9.278;2023-07-20T22:35:19;100657.33;;;17.45;78.88
11499;BME280;5806;48.748;9.278;2023-07-20T22:37:46;100655.16;;;17.42;79.18
11499;BME280;5806;48.748;9.278;2023-07-20T22:40:16;100660.39;;;17.39;80.28
11499;BME280;5806;48.748;9.278;2023-07-20T22:42:43;100662.70;;;17.29;79.96
11499;BME280;5806;48.748;9.278;2023-07-20T22:45:13;100660.48;;;17.29;80.56
11499;BME280;5806;48.748;9.278;2023-07-20T22:47:40;100654.95;;;17.29;79.30
11499;BME280;5806;48.748;9.278;2023-07-20T22:50:08;100662.11;;;17.32;79.42
11499;BME280;5806;48.748;9.278;2023-07-20T22:52:36;100666.69;;;17.13;79.54